Time;durP1;ratioP1;P1;durP2;ratioP2;P2;SDS_P1;SDS_P2;PMS_P1;PMS_P2;Temp;Humidity;BMP_temperature;BMP_pressure;BME280_temperature;BME280_humidity;BME280_pressure;Samples;Min_cycle;Max_cycle;Signal;HPM_P1;HPM_P2
2021/06/29 00:00:40;;;;;;;5.47;5.03;;;22.40;70.80;;;;;;4912724;28;20511;-87
2021/06/29 00:03:06;;;;;;;8.20;6.85;;;22.40;68.50;;;;;;4892934;28;20040;-87
2021/06/29 00:05:33;;;;;;;9.18;6.07;;;22.30;69.00;;;;;;4975118;28;20527;-87
2021/06/29 00:07:59;;;;;;;4.50;4.10;;;22.20;69.80;;;;;;4911180;28;20388;-87
2021/06/29 00:10:25;;;;;;;4.60;4.20;;;22.10;69.40;;;;;;4921742;28;20039;-86
2021/06/29 00:12:52;;;;;;;4.70;4.30;;;22.20;69.00;;;;;;4914104;28;20039;-87
2021/06/29 00:15:18;;;;;;;6.82;6.22;;;22.10;68.90;;;;;;4975032;28;20035;-87
2021/06/29 00:17:43;;;;;;;5.05;4.65;;;22.30;71.50;;;;;;4911756;28;20032;-87
2021/06/29 00:20:09;;;;;;;5.28;4.80;;;22.10;69.30;;;;;;4931540;28;20461;-87
2021/06/29 00:22:35;;;;;;;5.85;4.75;;;22.10;70.50;;;;;;4941207;28;20034;-87
2021/06/29 00:25:00;;;;;;;6.18;5.55;;;22.10;70.50;;;;;;4904533;28;20111;-87
2021/06/29 00:27:26;;;;;;;7.65;5.78;;;22.10;71.40;;;;;;4989094;28;20074;-87
2021/06/29 00:29:51;;;;;;;5.72;5.13;;;22.10;70.80;;;;;;4946068;28;20034;-87
2021/06/29 00:32:17;;;;;;;6.35;5.75;;;22.20;72.70;;;;;;4925539;28;20043;-87
2021/06/29 00:34:42;;;;;;;9.05;6.10;;;22.10;72.40;;;;;;4933716;28;20027;-87
2021/06/29 00:37:08;;;;;;;6.10;5.50;;;22.00;72.80;;;;;;4947908;28;20397;-87
2021/06/29 00:39:34;;;;;;;6.28;5.68;;;22.10;73.10;;;;;;4920153;28;20178;-87
2021/06/29 00:41:59;;;;;;;5.05;4.57;;;22.00;74.10;;;;;;4939282;28;20120;-87
2021/06/29 00:44:25;;;;;;;6.22;5.57;;;22.00;72.10;;;;;;4933218;28;20024;-87
2021/06/29 00:46:51;;;;;;;6.22;5.72;;;21.80;74.10;;;;;;4915483;28;20561;-87
2021/06/29 00:49:17;;;;;;;6.00;5.30;;;21.80;72.40;;;;;;4941550;28;20134;-87
2021/06/29 00:51:43;;;;;;;7.68;6.97;;;21.70;72.10;;;;;;4919146;28;20563;-87
2021/06/29 00:54:09;;;;;;;9.98;7.15;;;21.60;71.40;;;;;;4976717;28;20038;-87
2021/06/29 00:56:36;;;;;;;8.40;7.45;;;21.60;71.20;;;;;;4920459;28;20036;-87
2021/06/29 00:59:02;;;;;;;9.05;8.15;;;21.50;71.20;;;;;;4985828;28;20399;-87
2021/06/29 01:01:28;;;;;;;9.02;8.13;;;21.40;71.30;;;;;;4923530;28;20036;-87
2021/06/29 01:03:53;;;;;;;7.95;7.22;;;21.40;71.50;;;;;;4912501;28;20424;-87
2021/06/29 01:06:19;;;;;;;8.45;7.57;;;21.40;71.70;;;;;;4904690;28;20047;-87
2021/06/29 01:08:45;;;;;;;12.10;9.32;;;21.30;71.00;;;;;;4893682;28;20109;-85
2021/06/29 01:11:11;;;;;;;9.80;8.80;;;21.20;70.20;;;;;;4934595;28;20060;-84
2021/06/29 01:13:39;;;;;;;11.85;8.52;;;21.20;70.10;;;;;;4922604;28;20039;-85
2021/06/29 01:16:06;;;;;;;13.63;8.82;;;21.10;71.80;;;;;;4900612;28;20036;-85
2021/06/29 01:18:35;;;;;;;10.35;9.25;;;21.10;71.70;;;;;;4983843;28;20114;-85
2021/06/29 01:21:01;;;;;;;11.75;9.60;;;21.10;72.10;;;;;;4901247;28;20163;-86
2021/06/29 01:23:28;;;;;;;9.25;8.32;;;21.00;70.90;;;;;;4985139;28;20114;-85
2021/06/29 01:26:25;;;;;;;10.98;7.80;;;21.00;72.00;;;;;;4943383;28;20078;-85
2021/06/29 01:29:04;;;;;;;13.45;9.43;;;21.00;71.60;;;;;;4931822;28;20449;-85
2021/06/29 01:31:31;;;;;;;10.55;9.13;;;21.00;72.20;;;;;;4906942;28;20032;-85
2021/06/29 01:33:57;;;;;;;15.85;9.50;;;20.90;71.10;;;;;;4918260;28;20045;-85
2021/06/29 01:36:23;;;;;;;6.13;5.53;;;21.00;71.40;;;;;;4918892;28;20036;-85
2021/06/29 01:38:49;;;;;;;9.18;6.32;;;21.00;71.40;;;;;;4917359;28;20040;-86
2021/06/29 01:41:16;;;;;;;9.90;6.15;;;21.20;75.90;;;;;;4935448;28;20070;-85
2021/06/29 01:43:49;;;;;;;7.43;6.72;;;21.20;74.60;;;;;;4938070;28;20050;-86
2021/06/29 01:46:16;;;;;;;7.63;6.97;;;21.50;79.50;;;;;;4939687;28;20040;-83
2021/06/29 01:48:51;;;;;;;8.75;7.95;;;21.30;76.10;;;;;;4918330;28;20558;-85
2021/06/29 01:51:17;;;;;;;11.20;7.55;;;21.20;76.80;;;;;;4930004;28;20101;-85
2021/06/29 01:53:45;;;;;;;6.88;6.10;;;21.30;79.40;;;;;;4919650;28;20491;-85
2021/06/29 01:56:17;;;;;;;11.35;9.35;;;21.30;77.20;;;;;;4911003;28;20044;-84
2021/06/29 01:58:48;;;;;;;7.10;6.32;;;21.30;78.50;;;;;;4933002;28;20595;-85
2021/06/29 02:01:14;;;;;;;5.95;5.45;;;21.50;78.10;;;;;;4953703;28;20572;-85
2021/06/29 02:03:40;;;;;;;8.23;7.13;;;21.60;78.00;;;;;;4920892;28;20036;-86
2021/06/29 02:06:05;;;;;;;10.13;8.15;;;21.50;78.00;;;;;;4977555;28;20051;-85
2021/06/29 02:08:31;;;;;;;7.85;6.88;;;21.50;79.40;;;;;;4928673;28;20038;-85
2021/06/29 02:10:56;;;;;;;7.57;6.10;;;21.40;80.50;;;;;;4973573;28;20399;-86
2021/06/29 02:13:22;;;;;;;6.40;5.80;;;21.40;80.10;;;;;;4939729;28;20453;-85
2021/06/29 02:15:47;;;;;;;5.95;5.30;;;21.50;81.50;;;;;;4893692;28;20480;-86
2021/06/29 02:18:13;;;;;;;6.95;5.10;;;21.60;80.70;;;;;;4921181;28;20111;-86
2021/06/29 02:20:38;;;;;;;5.18;4.68;;;21.60;82.20;;;;;;4902838;28;20022;-85
2021/06/29 02:23:05;;;;;;;5.85;5.20;;;21.40;81.40;;;;;;4929067;28;20033;-86
2021/06/29 02:25:30;;;;;;;6.75;6.10;;;21.40;81.80;;;;;;4987731;28;20164;-84
2021/06/29 02:27:56;;;;;;;5.57;5.00;;;21.30;83.30;;;;;;4901650;28;20116;-87
2021/06/29 02:30:22;;;;;;;5.68;3.95;;;21.20;81.60;;;;;;4948456;28;20036;-86
2021/06/29 02:32:47;;;;;;;7.00;4.93;;;21.00;81.20;;;;;;4910910;28;20058;-86
2021/06/29 02:35:13;;;;;;;5.45;4.95;;;21.00;82.60;;;;;;4906537;28;20032;-86
2021/06/29 02:37:40;;;;;;;4.55;4.07;;;21.00;82.50;;;;;;4915394;28;20036;-86
2021/06/29 02:40:07;;;;;;;4.38;3.97;;;20.80;81.30;;;;;;4924168;28;20027;-86
2021/06/29 02:42:33;;;;;;;4.78;4.38;;;20.90;83.20;;;;;;4974820;28;20040;-82
2021/06/29 02:45:05;;;;;;;7.55;4.88;;;20.80;81.10;;;;;;4898983;28;20037;-82
2021/06/29 02:47:31;;;;;;;8.05;4.53;;;20.60;82.30;;;;;;4925882;28;20020;-87
2021/06/29 02:49:57;;;;;;;3.80;3.42;;;20.60;82.30;;;;;;4926825;28;20475;-86
2021/06/29 02:52:22;;;;;;;5.60;3.15;;;20.60;81.30;;;;;;4904656;28;20056;-86
2021/06/29 02:54:48;;;;;;;3.85;3.50;;;20.50;81.60;;;;;;4909261;28;20063;-86
2021/06/29 02:57:13;;;;;;;6.45;3.72;;;20.50;82.40;;;;;;4917906;28;20032;-86
2021/06/29 02:59:39;;;;;;;4.93;3.03;;;20.50;83.10;;;;;;4927014;28;20231;-86
2021/06/29 03:02:04;;;;;;;6.40;3.55;;;20.60;84.10;;;;;;4939719;28;20038;-85
2021/06/29 03:04:30;;;;;;;7.18;3.55;;;20.50;85.00;;;;;;4984272;28;20105;-86
2021/06/29 03:06:55;;;;;;;5.57;3.80;;;20.50;85.40;;;;;;4909306;28;20040;-85
2021/06/29 03:09:21;;;;;;;3.45;3.15;;;20.40;86.20;;;;;;4906444;28;20173;-86
2021/06/29 03:11:46;;;;;;;7.03;4.35;;;20.40;86.20;;;;;;4922275;28;20117;-86
2021/06/29 03:14:12;;;;;;;4.70;4.25;;;20.40;87.20;;;;;;4974509;28;20085;-86
2021/06/29 03:16:37;;;;;;;5.20;3.75;;;20.30;85.70;;;;;;4916778;28;20040;-86
2021/06/29 03:19:03;;;;;;;8.07;3.85;;;20.20;85.50;;;;;;4904170;28;20040;-85
2021/06/29 03:21:29;;;;;;;4.47;4.00;;;20.10;86.20;;;;;;4976512;28;20041;-85
2021/06/29 03:23:54;;;;;;;3.53;3.20;;;20.20;86.60;;;;;;4917979;28;20031;-85
2021/06/29 03:26:20;;;;;;;4.95;3.58;;;20.10;86.40;;;;;;4948791;28;20089;-85
2021/06/29 03:28:46;;;;;;;3.65;3.17;;;20.10;86.40;;;;;;4935211;28;20037;-85
2021/06/29 03:31:11;;;;;;;4.35;3.90;;;20.30;87.50;;;;;;4910377;28;20040;-85
2021/06/29 03:33:37;;;;;;;4.85;4.35;;;20.20;86.80;;;;;;4914666;28;20395;-85
2021/06/29 03:36:03;;;;;;;4.70;3.85;;;20.00;89.50;;;;;;4926871;28;20055;-85
2021/06/29 03:38:28;;;;;;;5.15;4.70;;;20.00;89.00;;;;;;4986406;28;20031;-85
2021/06/29 03:40:54;;;;;;;4.32;4.00;;;20.00;91.10;;;;;;4929787;28;20084;-85
2021/06/29 03:43:20;;;;;;;6.13;4.30;;;20.00;89.60;;;;;;4937012;28;20043;-85
2021/06/29 03:45:45;;;;;;;5.03;4.50;;;20.10;90.30;;;;;;4909532;28;20039;-85
2021/06/29 03:48:11;;;;;;;4.93;4.20;;;19.80;89.30;;;;;;4931044;28;20388;-85
2021/06/29 03:50:36;;;;;;;4.57;4.18;;;19.90;90.00;;;;;;4927212;28;20493;-85
2021/06/29 03:53:02;;;;;;;4.13;3.80;;;19.80;89.70;;;;;;4905580;28;20043;-85
2021/06/29 03:55:29;;;;;;;8.75;5.32;;;19.90;90.20;;;;;;4985049;28;20031;-86
2021/06/29 03:57:56;;;;;;;5.25;4.63;;;19.80;91.60;;;;;;4902747;28;20031;-85
2021/06/29 04:00:21;;;;;;;5.00;3.65;;;19.80;91.80;;;;;;4952991;28;20043;-85
2021/06/29 04:02:47;;;;;;;4.43;3.60;;;19.90;90.80;;;;;;4989903;28;20039;-84
2021/06/29 04:05:16;;;;;;;5.82;3.92;;;19.90;90.80;;;;;;4907821;28;20064;-85
2021/06/29 04:07:42;;;;;;;5.25;3.60;;;19.90;90.30;;;;;;4893902;28;20023;-85
2021/06/29 04:10:08;;;;;;;4.47;4.00;;;19.90;91.30;;;;;;4902551;28;20610;-84
2021/06/29 04:12:33;;;;;;;3.42;3.10;;;20.00;90.60;;;;;;4919737;28;20427;-84
2021/06/29 04:14:59;;;;;;;5.78;4.18;;;20.10;90.50;;;;;;4971233;28;20035;-85
2021/06/29 04:17:25;;;;;;;7.82;4.18;;;20.20;91.40;;;;;;4904136;28;20062;-85
2021/06/29 04:19:50;;;;;;;4.95;3.08;;;20.20;91.60;;;;;;4909255;28;20082;-84
2021/06/29 04:22:16;;;;;;;4.63;2.95;;;20.30;91.30;;;;;;4924531;28;20040;-85
2021/06/29 04:24:41;;;;;;;3.75;3.42;;;20.40;91.00;;;;;;4927151;28;20114;-86
2021/06/29 04:27:07;;;;;;;4.43;3.70;;;20.60;91.00;;;;;;4937948;28;20051;-85
2021/06/29 04:29:32;;;;;;;6.97;4.00;;;20.80;90.30;;;;;;4923798;28;20063;-85
2021/06/29 04:31:58;;;;;;;4.43;3.92;;;20.90;90.60;;;;;;4895300;28;20056;-85
2021/06/29 04:34:23;;;;;;;3.03;2.72;;;21.10;90.80;;;;;;4900175;28;20091;-85
2021/06/29 04:36:49;;;;;;;4.88;2.65;;;21.20;89.70;;;;;;4906263;28;20046;-86
2021/06/29 04:39:17;;;;;;;3.55;2.67;;;21.40;88.50;;;;;;4919427;28;20040;-85
2021/06/29 04:41:43;;;;;;;5.97;3.40;;;21.40;88.40;;;;;;4946583;28;20127;-85
2021/06/29 04:44:08;;;;;;;3.80;3.40;;;21.60;87.70;;;;;;4893177;28;20559;-87
2021/06/29 04:46:34;;;;;;;3.95;3.47;;;21.70;87.70;;;;;;4916196;28;20033;-86
2021/06/29 04:48:59;;;;;;;7.13;3.47;;;21.70;87.30;;;;;;4892192;28;22546;-85
2021/06/29 04:51:25;;;;;;;3.35;2.80;;;21.80;87.10;;;;;;4920407;28;20036;-85
2021/06/29 04:53:50;;;;;;;2.53;2.33;;;21.90;86.70;;;;;;4913533;28;20050;-85
2021/06/29 04:56:19;;;;;;;2.47;2.28;;;21.90;85.40;;;;;;4942256;28;20040;-85
2021/06/29 04:58:54;;;;;;;4.78;3.03;;;21.90;86.70;;;;;;4910819;28;20115;-86
2021/06/29 05:01:20;;;;;;;4.00;3.23;;;22.10;85.70;;;;;;4976614;28;20575;-86
2021/06/29 05:03:46;;;;;;;3.22;2.92;;;22.10;85.20;;;;;;4922805;28;20032;-84
2021/06/29 05:06:11;;;;;;;5.20;2.90;;;22.20;84.90;;;;;;4979097;28;20123;-86
2021/06/29 05:08:37;;;;;;;2.72;2.33;;;22.10;85.40;;;;;;4910382;28;20119;-86
2021/06/29 05:11:02;;;;;;;4.43;3.30;;;22.10;85.30;;;;;;4908408;28;20123;-87
2021/06/29 05:13:28;;;;;;;5.68;2.33;;;22.10;85.20;;;;;;4922019;28;20035;-86
2021/06/29 05:15:54;;;;;;;4.13;3.17;;;22.10;84.60;;;;;;4913428;28;20078;-85
2021/06/29 05:18:19;;;;;;;6.25;2.95;;;22.00;85.10;;;;;;4982594;28;20040;-87
2021/06/29 05:20:45;;;;;;;3.50;2.80;;;22.00;85.20;;;;;;4914508;28;20031;-87
2021/06/29 05:23:10;;;;;;;3.20;2.47;;;22.10;85.20;;;;;;4936580;28;20028;-85
2021/06/29 05:25:36;;;;;;;6.90;3.35;;;22.00;87.20;;;;;;4919911;28;20287;-86
2021/06/29 05:28:02;;;;;;;5.65;3.15;;;21.70;87.50;;;;;;4903756;28;20032;-85
2021/06/29 05:30:27;;;;;;;4.20;2.88;;;21.80;88.70;;;;;;4983295;28;20411;-86
2021/06/29 05:32:53;;;;;;;6.93;3.17;;;21.70;89.80;;;;;;4944617;28;20112;-84
2021/06/29 05:35:18;;;;;;;4.93;3.17;;;21.70;89.60;;;;;;4955466;28;20047;-86
2021/06/29 05:37:44;;;;;;;5.78;4.05;;;21.80;89.40;;;;;;4929425;28;20088;-86
2021/06/29 05:40:10;;;;;;;3.85;3.40;;;21.90;88.70;;;;;;4915527;28;20142;-85
2021/06/29 05:42:35;;;;;;;7.05;3.05;;;21.90;89.60;;;;;;4929923;28;20074;-84
2021/06/29 05:45:01;;;;;;;3.40;3.08;;;22.00;88.50;;;;;;4926466;28;20108;-85
2021/06/29 05:47:27;;;;;;;4.50;2.80;;;22.10;89.00;;;;;;4988010;28;20404;-85
2021/06/29 05:49:52;;;;;;;4.15;3.40;;;22.20;88.60;;;;;;4906179;28;20078;-86
2021/06/29 05:52:18;;;;;;;4.10;3.70;;;22.20;88.40;;;;;;4919371;28;20581;-86
2021/06/29 05:54:44;;;;;;;6.13;4.40;;;22.30;88.70;;;;;;4911315;28;20035;-86
2021/06/29 05:57:11;;;;;;;5.03;4.53;;;22.30;88.00;;;;;;4979936;28;20148;-86
2021/06/29 05:59:37;;;;;;;5.50;4.20;;;22.40;88.90;;;;;;4927813;28;20543;-86
2021/06/29 06:02:03;;;;;;;4.60;4.18;;;22.20;88.80;;;;;;4936963;28;20062;-86
2021/06/29 06:04:28;;;;;;;5.88;4.30;;;22.20;89.50;;;;;;4986704;28;20043;-86
2021/06/29 06:06:54;;;;;;;3.88;3.47;;;22.40;88.50;;;;;;4926485;28;20125;-86
2021/06/29 06:09:19;;;;;;;4.18;3.78;;;22.30;88.80;;;;;;4911665;28;20040;-86
2021/06/29 06:11:45;;;;;;;7.10;3.45;;;22.40;88.60;;;;;;4907258;28;20625;-87
2021/06/29 06:14:10;;;;;;;6.65;4.85;;;22.60;87.70;;;;;;4902551;28;20028;-86
2021/06/29 06:16:36;;;;;;;6.93;6.22;;;22.70;88.50;;;;;;4919661;28;20031;-85
2021/06/29 06:19:02;;;;;;;6.07;4.20;;;23.10;87.70;;;;;;4966948;28;20083;-86
2021/06/29 06:21:28;;;;;;;5.72;5.13;;;23.40;86.70;;;;;;4987757;28;20040;-86
2021/06/29 06:23:53;;;;;;;4.18;3.72;;;23.30;86.50;;;;;;4937084;28;20036;-86
2021/06/29 06:26:19;;;;;;;7.72;5.15;;;23.50;85.80;;;;;;4986877;28;20036;-86
2021/06/29 06:28:45;;;;;;;8.20;5.57;;;23.70;85.40;;;;;;4936693;28;20087;-86
2021/06/29 06:31:10;;;;;;;9.63;5.82;;;24.00;86.10;;;;;;4936839;28;20033;-86
2021/06/29 06:33:36;;;;;;;7.25;4.95;;;23.70;85.40;;;;;;4921799;28;20672;-85
2021/06/29 06:36:02;;;;;;;6.65;5.95;;;23.80;86.10;;;;;;4924395;28;20036;-86
2021/06/29 06:38:27;;;;;;;8.02;6.20;;;24.10;84.60;;;;;;4988932;28;20034;-86
2021/06/29 06:40:53;;;;;;;12.23;9.38;;;24.00;84.60;;;;;;4929625;28;20033;-86
2021/06/29 06:43:18;;;;;;;14.43;7.50;;;23.90;85.50;;;;;;4920964;28;20098;-86
2021/06/29 06:45:44;;;;;;;11.88;7.65;;;23.90;85.10;;;;;;4937801;28;20028;-86
2021/06/29 06:48:09;;;;;;;17.67;14.70;;;23.80;85.10;;;;;;4946973;28;20027;-86
2021/06/29 06:50:35;;;;;;;10.20;8.32;;;23.80;85.90;;;;;;5005971;28;20036;-86
2021/06/29 06:53:00;;;;;;;12.63;9.05;;;23.90;85.00;;;;;;4936624;28;20399;-86
2021/06/29 06:55:26;;;;;;;9.88;8.88;;;24.10;85.10;;;;;;4933293;28;20028;-88
2021/06/29 06:57:55;;;;;;;8.88;6.57;;;24.00;84.80;;;;;;4920392;28;20082;-86
2021/06/29 07:00:21;;;;;;;11.52;9.65;;;24.10;84.80;;;;;;4925969;28;20396;-85
2021/06/29 07:02:47;;;;;;;12.75;8.50;;;24.20;85.30;;;;;;4924847;28;20055;-87
2021/06/29 07:05:12;;;;;;;10.25;6.32;;;24.50;84.60;;;;;;4905190;28;20064;-85
2021/06/29 07:07:38;;;;;;;6.78;5.72;;;24.30;84.00;;;;;;4921988;28;20055;-87
2021/06/29 07:10:05;;;;;;;6.35;5.78;;;24.30;83.10;;;;;;4978898;28;20057;-87
2021/06/29 07:12:30;;;;;;;6.75;5.22;;;24.40;84.40;;;;;;4972709;28;20036;-85
2021/06/29 07:14:56;;;;;;;7.90;6.43;;;24.60;83.30;;;;;;4904470;28;20051;-84
2021/06/29 07:17:22;;;;;;;5.78;4.93;;;24.40;83.70;;;;;;4987965;28;20032;-86
2021/06/29 07:19:47;;;;;;;9.35;6.32;;;24.60;83.00;;;;;;4974971;28;20036;-86
2021/06/29 07:22:13;;;;;;;7.22;4.85;;;24.70;82.80;;;;;;4976488;28;20038;-86
2021/06/29 07:24:38;;;;;;;7.18;5.68;;;24.90;82.10;;;;;;4908324;28;20403;-87
2021/06/29 07:27:05;;;;;;;6.03;4.40;;;25.00;83.60;;;;;;4975372;28;20039;-86
2021/06/29 07:29:31;;;;;;;4.97;4.47;;;25.50;82.30;;;;;;4977365;28;20557;-87
2021/06/29 07:31:56;;;;;;;6.68;3.95;;;25.60;81.60;;;;;;4927982;28;20031;-86
2021/06/29 07:34:22;;;;;;;8.05;3.28;;;25.80;81.60;;;;;;4943906;28;20111;-87
2021/06/29 07:36:47;;;;;;;5.38;3.75;;;25.80;80.90;;;;;;4911947;28;20074;-87
2021/06/29 07:39:13;;;;;;;3.83;3.28;;;26.00;79.30;;;;;;4921964;28;20032;-88
2021/06/29 07:41:39;;;;;;;5.20;4.70;;;26.00;79.30;;;;;;4912819;28;20036;-87
2021/06/29 07:44:04;;;;;;;3.50;3.20;;;26.10;79.40;;;;;;4948417;28;20039;-87
2021/06/29 07:46:30;;;;;;;4.22;3.50;;;26.10;80.10;;;;;;4988083;28;20071;-88
2021/06/29 07:48:55;;;;;;;4.35;3.47;;;26.40;79.70;;;;;;4942192;28;20047;-88
2021/06/29 07:51:21;;;;;;;3.60;3.20;;;26.50;78.60;;;;;;4941964;28;20040;-87
2021/06/29 07:53:47;;;;;;;4.10;3.08;;;26.60;79.00;;;;;;4942728;28;20044;-88
2021/06/29 07:56:16;;;;;;;10.75;3.13;;;26.80;77.70;;;;;;4943476;28;20039;-85
2021/06/29 07:58:43;;;;;;;3.20;2.88;;;27.10;78.80;;;;;;4902125;28;20024;-87
2021/06/29 08:01:09;;;;;;;5.32;2.90;;;27.30;75.50;;;;;;4918577;28;20036;-88
2021/06/29 08:03:35;;;;;;;4.88;3.08;;;27.10;77.90;;;;;;4972980;28;20024;-88
2021/06/29 08:06:00;;;;;;;4.78;3.33;;;27.20;75.70;;;;;;4983843;28;20039;-88
2021/06/29 08:08:26;;;;;;;3.67;3.20;;;27.30;77.40;;;;;;4929064;28;20463;-86
2021/06/29 08:10:51;;;;;;;3.75;3.25;;;27.40;76.70;;;;;;4925622;28;20712;-88
2021/06/29 08:13:17;;;;;;;8.52;4.78;;;27.80;74.50;;;;;;4976448;28;20036;-88
2021/06/29 08:15:42;;;;;;;5.97;4.38;;;27.90;74.10;;;;;;4910486;28;20043;-86
2021/06/29 08:18:08;;;;;;;6.43;4.80;;;28.00;74.00;;;;;;4909695;28;20039;-89
2021/06/29 08:20:34;;;;;;;4.18;3.25;;;27.40;73.50;;;;;;4906287;28;20038;-88
2021/06/29 08:23:00;;;;;;;7.07;3.20;;;27.60;75.80;;;;;;4977737;28;20031;-87
2021/06/29 08:25:25;;;;;;;6.03;3.83;;;27.80;74.30;;;;;;4903219;28;20170;-88
2021/06/29 08:27:51;;;;;;;4.35;3.95;;;28.80;73.40;;;;;;4948036;28;20026;-88
2021/06/29 08:30:17;;;;;;;5.80;4.15;;;28.80;74.70;;;;;;4945638;28;20044;-87
2021/06/29 08:32:43;;;;;;;6.45;4.72;;;29.00;71.40;;;;;;4897119;28;20022;-89
2021/06/29 08:35:09;;;;;;;6.63;5.22;;;29.30;71.40;;;;;;4906057;28;20495;-87
2021/06/29 08:37:35;;;;;;;6.10;5.50;;;29.60;71.30;;;;;;4929851;28;20032;-87
2021/06/29 08:40:01;;;;;;;5.35;4.43;;;29.90;68.70;;;;;;4954495;28;20056;-88
2021/06/29 08:42:29;;;;;;;8.45;6.43;;;29.80;68.30;;;;;;4970423;28;20070;-88
2021/06/29 08:44:56;;;;;;;7.82;6.47;;;28.80;68.90;;;;;;4909244;28;20036;-89
2021/06/29 08:47:21;;;;;;;10.15;8.55;;;28.60;70.20;;;;;;4923219;28;20031;-89
2021/06/29 08:49:47;;;;;;;10.65;6.35;;;28.10;71.70;;;;;;4930540;28;20405;-89
2021/06/29 08:52:12;;;;;;;8.82;7.65;;;28.90;69.20;;;;;;4970809;28;20475;-90
2021/06/29 08:54:38;;;;;;;9.52;6.68;;;29.30;69.10;;;;;;4938803;28;20416;-90
2021/06/29 08:57:04;;;;;;;8.73;6.38;;;29.20;72.20;;;;;;5004414;28;20040;-90
2021/06/29 08:59:29;;;;;;;10.30;6.50;;;30.00;70.00;;;;;;4988902;28;20039;-89
2021/06/29 09:01:56;;;;;;;9.20;7.05;;;29.80;66.90;;;;;;4926002;28;20063;-88
2021/06/29 09:04:50;;;;;;;7.20;6.50;;;29.00;68.80;;;;;;4941284;28;20400;-88
2021/06/29 09:07:33;;;;;;;9.13;8.15;;;30.20;69.80;;;;;;4932777;28;20045;-88
2021/06/29 09:10:00;;;;;;;11.63;7.80;;;30.50;67.40;;;;;;4922289;28;21681;-87
2021/06/29 09:12:48;;;;;;;7.25;5.93;;;30.20;65.80;;;;;;4929033;28;20653;-86
2021/06/29 09:15:26;;;;;;;9.93;6.90;;;30.40;67.90;;;;;;4939327;28;20032;-85
2021/06/29 09:17:52;;;;;;;9.63;8.20;;;30.20;65.20;;;;;;4929404;28;20044;-86
2021/06/29 09:20:29;;;;;;;11.82;8.60;;;30.10;68.10;;;;;;4979648;28;20862;-87
2021/06/29 09:22:58;;;;;;;19.30;17.23;;;30.40;66.10;;;;;;4927592;28;20391;-87
2021/06/29 09:25:27;;;;;;;13.38;11.75;;;30.60;66.30;;;;;;4943323;28;20553;-87
2021/06/29 09:27:53;;;;;;;20.30;17.00;;;30.40;66.00;;;;;;4932395;28;20028;-87
2021/06/29 09:30:39;;;;;;;14.75;13.23;;;31.20;65.40;;;;;;4923534;28;20043;-87
2021/06/29 09:33:08;;;;;;;15.93;14.32;;;31.40;64.90;;;;;;4921359;28;20071;-86
2021/06/29 09:35:34;;;;;;;14.32;12.93;;;31.30;65.70;;;;;;5006131;28;20496;-86
2021/06/29 09:38:00;;;;;;;18.00;16.13;;;31.70;64.80;;;;;;4913758;28;20036;-85
2021/06/29 09:40:27;;;;;;;20.10;14.45;;;32.00;64.50;;;;;;4891378;28;20388;-84
2021/06/29 09:42:53;;;;;;;13.98;11.80;;;32.30;62.70;;;;;;4945563;28;20396;-85
2021/06/29 09:45:45;;;;;;;17.85;16.02;;;32.60;61.60;;;;;;4904571;28;20043;-85
2021/06/29 09:48:14;;;;;;;15.55;13.68;;;32.70;60.00;;;;;;4928918;28;20029;-84
2021/06/29 09:50:52;;;;;;;14.85;11.13;;;31.90;62.40;;;;;;4938592;28;20051;-85
2021/06/29 09:53:17;;;;;;;13.25;11.45;;;32.20;60.70;;;;;;4950831;28;20068;-86
2021/06/29 09:55:47;;;;;;;13.55;12.18;;;32.10;60.50;;;;;;4923643;28;20106;-84
2021/06/29 09:58:14;;;;;;;18.48;15.15;;;32.10;60.30;;;;;;4940288;28;20049;-84
2021/06/29 10:00:50;;;;;;;14.68;13.05;;;32.40;60.10;;;;;;4924136;28;20039;-84
2021/06/29 10:03:20;;;;;;;17.20;14.32;;;32.30;60.00;;;;;;4984105;28;20486;-85
2021/06/29 10:05:45;;;;;;;19.83;17.70;;;32.40;59.40;;;;;;4993883;28;20040;-84
2021/06/29 10:08:20;;;;;;;13.38;11.55;;;32.20;59.80;;;;;;4915268;28;20070;-84
2021/06/29 10:10:46;;;;;;;13.37;11.03;;;32.40;59.10;;;;;;4939452;28;20086;-85
2021/06/29 10:13:17;;;;;;;13.15;11.40;;;32.50;59.20;;;;;;4910745;28;20267;-84
2021/06/29 10:15:44;;;;;;;18.67;16.27;;;32.40;59.20;;;;;;4918299;28;20032;-84
2021/06/29 10:18:10;;;;;;;13.60;11.60;;;32.60;58.80;;;;;;4931372;28;20024;-84
2021/06/29 10:20:50;;;;;;;12.85;11.18;;;32.30;59.70;;;;;;4919150;28;20037;-82
2021/06/29 10:23:16;;;;;;;13.80;12.25;;;32.70;59.30;;;;;;4915171;28;20027;-84
2021/06/29 10:25:42;;;;;;;14.10;11.68;;;32.10;60.40;;;;;;4910063;28;20032;-83
2021/06/29 10:28:08;;;;;;;21.65;17.73;;;32.70;58.60;;;;;;4985927;28;20035;-84
2021/06/29 10:30:33;;;;;;;15.90;13.57;;;33.00;57.50;;;;;;4938037;28;20560;-83
2021/06/29 10:33:01;;;;;;;13.82;11.20;;;32.90;57.50;;;;;;4934149;28;20400;-83
2021/06/29 10:35:27;;;;;;;14.23;11.35;;;32.80;57.40;;;;;;4965207;28;20448;-83
2021/06/29 10:37:52;;;;;;;16.67;15.00;;;32.90;57.30;;;;;;4955574;28;20028;-83
2021/06/29 10:40:18;;;;;;;18.13;16.23;;;33.00;56.90;;;;;;4898152;28;20047;-84
2021/06/29 10:42:43;;;;;;;12.23;10.95;;;33.10;56.80;;;;;;4915443;28;20024;-85
2021/06/29 10:45:13;;;;;;;12.63;11.32;;;33.20;56.50;;;;;;4891603;28;20031;-85
2021/06/29 10:47:39;;;;;;;20.33;17.15;;;33.30;56.50;;;;;;4928313;28;20454;-84
2021/06/29 10:50:11;;;;;;;16.05;13.35;;;33.30;56.20;;;;;;4924564;28;20036;-83
2021/06/29 10:52:38;;;;;;;18.40;15.60;;;33.30;56.40;;;;;;4984123;28;20032;-85
2021/06/29 10:55:22;;;;;;;16.80;15.00;;;33.60;56.40;;;;;;4984543;28;20089;-84
2021/06/29 10:58:05;;;;;;;13.13;11.50;;;33.70;56.20;;;;;;4948346;28;20032;-85
2021/06/29 11:00:33;;;;;;;15.18;10.30;;;33.70;55.20;;;;;;5000827;28;20361;-83
2021/06/29 11:03:11;;;;;;;15.10;11.98;;;33.30;56.30;;;;;;4935243;28;20043;-85
2021/06/29 11:05:37;;;;;;;16.65;14.88;;;33.40;56.00;;;;;;4954890;28;20069;-85
2021/06/29 11:08:09;;;;;;;12.68;11.32;;;33.90;56.30;;;;;;5006826;28;20040;-85
2021/06/29 11:10:37;;;;;;;12.80;11.50;;;34.60;55.30;;;;;;4928949;28;20039;-82
2021/06/29 11:13:02;;;;;;;12.82;11.43;;;34.90;54.70;;;;;;4974906;28;20514;-82
2021/06/29 11:15:44;;;;;;;12.50;11.20;;;34.70;53.50;;;;;;4986970;28;20036;-81
2021/06/29 11:18:10;;;;;;;11.43;9.63;;;34.70;53.80;;;;;;4923788;28;20283;-81
2021/06/29 11:20:52;;;;;;;13.13;11.75;;;34.80;53.50;;;;;;4919036;28;20036;-80
2021/06/29 11:23:25;;;;;;;13.20;11.30;;;34.70;52.70;;;;;;4988744;28;20067;-80
2021/06/29 11:26:10;;;;;;;22.23;19.67;;;34.70;53.00;;;;;;4929887;28;20039;-79
2021/06/29 11:28:37;;;;;;;19.43;16.13;;;35.10;52.40;;;;;;4989813;28;20500;-79
2021/06/29 11:31:12;;;;;;;20.65;16.60;;;35.10;51.60;;;;;;4904593;28;20024;-79
2021/06/29 11:33:57;;;;;;;14.13;12.60;;;35.10;51.60;;;;;;4950792;28;20539;-79
2021/06/29 11:38:58;;;;;;;12.95;11.60;;;35.00;51.30;;;;;;4922394;28;20394;-79
2021/06/29 11:41:36;;;;;;;9.02;8.13;;;34.90;50.40;;;;;;4912216;28;20094;-79
2021/06/29 11:44:07;;;;;;;9.63;8.43;;;34.80;50.20;;;;;;4933021;28;20511;-80
2021/06/29 11:47:13;;;;;;;11.63;10.40;;;34.70;50.30;;;;;;4913219;28;20028;-79
2021/06/29 11:49:53;;;;;;;10.25;9.25;;;34.70;50.80;;;;;;4871788;28;20044;-79
2021/06/29 11:52:19;;;;;;;9.95;7.13;;;34.80;49.90;;;;;;4864784;28;20064;-79
2021/06/29 11:54:55;;;;;;;10.35;9.27;;;34.70;49.80;;;;;;4923563;28;20063;-79
2021/06/29 11:57:27;;;;;;;9.02;8.13;;;34.70;50.00;;;;;;4955791;28;20055;-79
2021/06/29 12:00:00;;;;;;;12.15;9.65;;;35.00;49.20;;;;;;4947550;28;20027;-78
2021/06/29 12:02:28;;;;;;;9.70;8.55;;;35.20;48.50;;;;;;4944996;28;20618;-78
2021/06/29 12:05:07;;;;;;;7.40;6.70;;;35.10;48.70;;;;;;4946670;28;20043;-78
2021/06/29 12:07:49;;;;;;;8.27;6.38;;;35.00;48.50;;;;;;4959906;28;20071;-78
2021/06/29 12:10:17;;;;;;;7.45;6.63;;;34.90;48.40;;;;;;4978486;28;20534;-78
2021/06/29 12:12:52;;;;;;;8.82;6.07;;;35.00;48.50;;;;;;4926782;28;20046;-78
2021/06/29 12:15:23;;;;;;;9.48;7.82;;;35.30;48.50;;;;;;4984262;28;20039;-78
2021/06/29 12:17:59;;;;;;;8.60;7.72;;;35.60;48.30;;;;;;4921471;28;20479;-79
2021/06/29 12:20:30;;;;;;;7.45;6.43;;;36.00;47.90;;;;;;4941520;28;20502;-78
2021/06/29 12:22:56;;;;;;;9.07;7.78;;;36.50;47.30;;;;;;4936592;28;20493;-78
2021/06/29 12:25:26;;;;;;;9.48;8.48;;;36.80;47.50;;;;;;4939921;28;20035;-78
2021/06/29 12:27:57;;;;;;;7.22;6.45;;;37.40;45.20;;;;;;4911685;28;20031;-78
2021/06/29 12:30:29;;;;;;;7.45;6.75;;;37.50;44.30;;;;;;4904362;28;20044;-78
2021/06/29 12:32:54;;;;;;;8.45;7.65;;;37.70;44.20;;;;;;4924280;28;20036;-77
2021/06/29 12:35:21;;;;;;;15.40;11.90;;;37.70;45.30;;;;;;4947619;28;20380;-78
2021/06/29 12:37:55;;;;;;;14.15;12.65;;;38.20;44.10;;;;;;4911835;28;20042;-78
2021/06/29 12:40:22;;;;;;;13.10;11.73;;;38.80;42.30;;;;;;4940003;28;20565;-77
2021/06/29 12:42:47;;;;;;;16.55;14.85;;;38.80;43.20;;;;;;4922226;28;20435;-78
2021/06/29 12:45:13;;;;;;;11.57;10.38;;;39.10;42.20;;;;;;4941527;28;20057;-77
2021/06/29 12:47:39;;;;;;;12.50;8.75;;;39.30;42.10;;;;;;4893934;28;20032;-78